Licenciado Benito Juarez International Airport
MMMX : rendu visible

Aérodrome :











RETROUVEZ-NOUS SUR...

 
LOGIN :

S'inscrire | Disclaimer

   EN    FR    IT 

 









Légende :    VFR   VFR Marginal   IFR   IFR Intensif   IFR Très Intensif
Visi : 
Plafond : 
>= 8 km
>= 3000ft
5 à 8 km
1000 à 3000 ft
1500m à 5 km
500 à 1000 ft
800 à 1500m
200 à 500 ft
< 800m
< 200 ft
Symboles :   Orages  Brouillard  Fortes neiges  Fortes précipitations  Vent > 20 kt






- Altitude de l'aérodrome : 7316 ft
- Code IATA : MEX


MMMX - Licenciado Benito Juarez International

DERNIER METAR :
  • 040645Z 36007KT 12SM FEW020 17/10 A3030 NOSIG RMK 8/500

METARs EXPIRÉS :
  • 040545Z 01007KT 12SM SKC 17/10 A3032 NOSIG RMK SLP093 52017 963 ISOL SC N NW
  • 040447Z 35005KT 12SM FEW020 18/09 A3032 NOSIG RMK 8/500 ISOL AC

TAF TAF MMMX
Valide du 04 à 06h jusqu'au 05 à 12h UTC


040511Z 0406/0512 36005KT P6SM SCT020 TX25/0421Z TN16/0412Z
FM042000 03012KT P6SM SCT020
TEMPO 0421/0501 BKN020
FM050300 02005KT P6SM SCT020 SCT100
FIR MMFR / Amérique du Nord



MET'MAP, la Météo Aéronautique d'un coup d'oeil ! - Copyright ORBIFLY Décembre 2007 - Disclaimer

ORBIFLY MET'MAP TEAM :

Programmation & Développement : Alexandra Zaïnal
Sur une idée originale de : Baudouin d'Aumeries
Assistance à la programmation : Marc-Olivier Méhu
Soutien technique & logistique : Manuel Goepfert

Contact : metmap@orbifly.com




SOURCES & CREDITS :

   NOAA       Earth
Advisory